sensor_id;sensor_type;location;lat;lon;timestamp;pressure;altitude;pressure_sealevel;temperature;humidity
63582;BME280;49727;51.078;17.066;2023-04-08T00:14:27;100341.91;;;5.09;78.07
63582;BME280;49727;51.078;17.066;2023-04-08T00:29:27;100353.97;;;5.02;77.63
63582;BME280;49727;51.078;17.066;2023-04-08T00:44:28;100349.03;;;4.97;77.86
63582;BME280;49727;51.078;17.066;2023-04-08T00:59:29;100372.03;;;5.06;78.39
63582;BME280;49727;51.078;17.066;2023-04-08T01:14:30;100381.69;;;5.17;78.44
63582;BME280;49727;51.078;17.066;2023-04-08T01:29:34;100387.28;;;5.24;78.84
63582;BME280;49727;51.078;17.066;2023-04-08T01:44:35;100388.78;;;5.17;78.63
63582;BME280;49727;51.078;17.066;2023-04-08T01:59:37;100410.34;;;4.80;78.37
63582;BME280;49727;51.078;17.066;2023-04-08T02:14:39;100428.44;;;4.52;78.18
63582;BME280;49727;51.078;17.066;2023-04-08T02:29:40;100450.31;;;4.43;78.45
63582;BME280;49727;51.078;17.066;2023-04-08T02:44:41;100453.44;;;4.36;78.44
63582;BME280;49727;51.078;17.066;2023-04-08T02:59:41;100468.53;;;4.34;78.04
63582;BME280;49727;51.078;17.066;2023-04-08T03:14:42;100481.28;;;4.29;78.12
63582;BME280;49727;51.078;17.066;2023-04-08T03:29:42;100493.03;;;4.14;77.73
63582;BME280;49727;51.078;17.066;2023-04-08T03:44:44;100505.16;;;4.05;78.22
63582;BME280;49727;51.078;17.066;2023-04-08T03:59:45;100514.59;;;3.96;77.74
63582;BME280;49727;51.078;17.066;2023-04-08T04:14:45;100533.16;;;3.95;77.36
63582;BME280;49727;51.078;17.066;2023-04-08T04:29:45;100558.47;;;3.97;77.55
63582;BME280;49727;51.078;17.066;2023-04-08T04:44:46;100580.88;;;4.03;77.54
63582;BME280;49727;51.078;17.066;2023-04-08T04:59:46;100599.69;;;4.10;77.35
63582;BME280;49727;51.078;17.066;2023-04-08T05:14:47;100620.44;;;4.14;76.91
63582;BME280;49727;51.078;17.066;2023-04-08T05:29:47;100637.94;;;4.15;76.97
63582;BME280;49727;51.078;17.066;2023-04-08T05:44:47;100643.00;;;4.18;76.35
63582;BME280;49727;51.078;17.066;2023-04-08T05:59:48;100662.91;;;4.22;76.21
63582;BME280;49727;51.078;17.066;2023-04-08T06:14:53;100680.88;;;4.29;75.28
63582;BME280;49727;51.078;17.066;2023-04-08T06:29:54;100698.41;;;4.52;74.93
63582;BME280;49727;51.078;17.066;2023-04-08T06:44:55;100720.63;;;5.06;74.42
63582;BME280;49727;51.078;17.066;2023-04-08T06:59:55;100725.00;;;5.51;72.99
63582;BME280;49727;51.078;17.066;2023-04-08T07:14:56;100738.97;;;5.74;71.69
63582;BME280;49727;51.078;17.066;2023-04-08T07:29:56;100760.47;;;6.14;71.19
63582;BME280;49727;51.078;17.066;2023-04-08T07:44:57;100775.94;;;6.51;69.15
63582;BME280;49727;51.078;17.066;2023-04-08T07:59:57;100798.91;;;6.29;68.19
63582;BME280;49727;51.078;17.066;2023-04-08T08:14:57;100797.75;;;6.85;67.80
63582;BME280;49727;51.078;17.066;2023-04-08T08:29:58;100804.63;;;7.28;66.99
63582;BME280;49727;51.078;17.066;2023-04-08T08:45:01;100810.00;;;7.48;66.10
63582;BME280;49727;51.078;17.066;2023-04-08T09:00:02;100825.75;;;8.00;65.65
63582;BME280;49727;51.078;17.066;2023-04-08T09:15:07;100846.56;;;8.14;63.83
63582;BME280;49727;51.078;17.066;2023-04-08T09:30:14;100860.13;;;8.21;62.80
63582;BME280;49727;51.078;17.066;2023-04-08T09:45:16;100865.16;;;8.73;62.09
63582;BME280;49727;51.078;17.066;2023-04-08T10:00:17;100878.06;;;9.63;60.44
63582;BME280;49727;51.078;17.066;2023-04-08T10:15:31;100881.88;;;9.13;59.24
63582;BME280;49727;51.078;17.066;2023-04-08T10:45:32;100889.28;;;10.40;57.82
63582;BME280;49727;51.078;17.066;2023-04-08T11:00:35;100887.03;;;10.54;55.67
63582;BME280;49727;51.078;17.066;2023-04-08T11:15:37;100891.56;;;12.77;53.85
63582;BME280;49727;51.078;17.066;2023-04-08T11:30:39;100889.00;;;14.67;51.07
63582;BME280;49727;51.078;17.066;2023-04-08T11:45:40;100888.91;;;26.73;36.64
63582;BME280;49727;51.078;17.066;2023-04-08T12:00:41;100895.31;;;22.81;32.07
63582;BME280;49727;51.078;17.066;2023-04-08T12:15:41;100884.66;;;23.62;28.52
63582;BME280;49727;51.078;17.066;2023-04-08T12:30:42;100888.91;;;19.23;32.68
63582;BME280;49727;51.078;17.066;2023-04-08T12:45:42;100876.78;;;18.19;33.38
63582;BME280;49727;51.078;17.066;2023-04-08T13:00:43;100872.75;;;17.46;34.63
63582;BME280;49727;51.078;17.066;2023-04-08T13:15:45;100862.31;;;18.67;32.64
63582;BME280;49727;51.078;17.066;2023-04-08T13:30:46;100853.78;;;17.68;33.60
63582;BME280;49727;51.078;17.066;2023-04-08T13:45:46;100856.69;;;17.66;33.89
63582;BME280;49727;51.078;17.066;2023-04-08T14:00:47;100858.22;;;16.84;34.68
63582;BME280;49727;51.078;17.066;2023-04-08T14:15:47;100854.13;;;17.16;35.03
63582;BME280;49727;51.078;17.066;2023-04-08T14:30:48;100859.50;;;16.60;35.34
63582;BME280;49727;51.078;17.066;2023-04-08T14:45:49;100864.59;;;16.11;35.97
63582;BME280;49727;51.078;17.066;2023-04-08T15:00:50;100859.41;;;15.43;37.04
63582;BME280;49727;51.078;17.066;2023-04-08T15:15:50;100856.22;;;14.80;38.16
63582;BME280;49727;51.078;17.066;2023-04-08T15:30:51;100861.47;;;13.95;39.42
63582;BME280;49727;51.078;17.066;2023-04-08T15:45:51;100875.03;;;12.73;41.79
63582;BME280;49727;51.078;17.066;2023-04-08T16:00:51;100863.97;;;12.27;43.14
63582;BME280;49727;51.078;17.066;2023-04-08T16:15:55;100879.13;;;12.01;44.18
63582;BME280;49727;51.078;17.066;2023-04-08T16:30:55;100880.78;;;11.68;44.75
63582;BME280;49727;51.078;17.066;2023-04-08T16:45:56;100896.22;;;11.22;45.65
63582;BME280;49727;51.078;17.066;2023-04-08T17:00:56;100912.81;;;10.89;46.22
63582;BME280;49727;51.078;17.066;2023-04-08T17:15:56;100918.50;;;10.50;48.42
63582;BME280;49727;51.078;17.066;2023-04-08T17:30:57;100927.75;;;10.28;49.02
63582;BME280;49727;51.078;17.066;2023-04-08T17:45:58;100933.63;;;10.04;49.22
63582;BME280;49727;51.078;17.066;2023-04-08T18:00:59;100938.91;;;9.76;50.28
63582;BME280;49727;51.078;17.066;2023-04-08T18:16:00;100961.41;;;9.54;51.20
63582;BME280;49727;51.078;17.066;2023-04-08T18:31:00;100976.44;;;9.35;51.99
63582;BME280;49727;51.078;17.066;2023-04-08T18:46:01;100981.22;;;9.22;53.08
63582;BME280;49727;51.078;17.066;2023-04-08T19:01:05;100985.97;;;9.08;53.40
63582;BME280;49727;51.078;17.066;2023-04-08T19:16:06;100987.69;;;9.00;54.08
63582;BME280;49727;51.078;17.066;2023-04-08T19:31:14;100985.28;;;8.87;55.12
63582;BME280;49727;51.078;17.066;2023-04-08T19:46:15;100986.53;;;8.83;55.50
63582;BME280;49727;51.078;17.066;2023-04-08T20:01:16;100989.75;;;8.76;56.09
63582;BME280;49727;51.078;17.066;2023-04-08T20:16:16;100983.19;;;8.71;56.99
63582;BME280;49727;51.078;17.066;2023-04-08T20:31:17;100973.53;;;8.60;57.45
63582;BME280;49727;51.078;17.066;2023-04-08T20:46:18;100992.94;;;8.51;58.06
63582;BME280;49727;51.078;17.066;2023-04-08T21:01:19;100996.25;;;8.43;58.43
63582;BME280;49727;51.078;17.066;2023-04-08T21:16:19;100999.31;;;8.38;58.84
63582;BME280;49727;51.078;17.066;2023-04-08T21:31:20;100999.03;;;8.32;59.58
63582;BME280;49727;51.078;17.066;2023-04-08T21:46:20;100990.75;;;8.25;59.43
63582;BME280;49727;51.078;17.066;2023-04-08T22:01:20;100983.31;;;8.19;59.53
63582;BME280;49727;51.078;17.066;2023-04-08T22:16:21;100975.47;;;8.07;59.80
63582;BME280;49727;51.078;17.066;2023-04-08T22:31:21;100969.84;;;8.01;60.27
63582;BME280;49727;51.078;17.066;2023-04-08T22:46:21;100966.91;;;7.94;60.52
63582;BME280;49727;51.078;17.066;2023-04-08T23:01:22;100978.50;;;7.93;60.50
63582;BME280;49727;51.078;17.066;2023-04-08T23:16:22;100979.16;;;7.85;60.48
63582;BME280;49727;51.078;17.066;2023-04-08T23:31:23;100971.16;;;7.75;61.42
63582;BME280;49727;51.078;17.066;2023-04-08T23:46:23;100947.66;;;7.71;61.52
